Pagrindinis puslapis
METAR-TAF:

METAR-TAF

Oro uostai :

Siris, Iranas

platuma: 25-54-34N, ilguma: 054-32-22E, Aukštis: 13 m

Dabartinis oras

Ataskaita buvo paskelbta 1 valandą ir 14 minutes, ne 07:00 UTC
Vėjas 12 kt iš Rytų
Temperatūra 31°C
Drėgmė 52%
Slėgis 1013 hPa
Matomumas 10 km arba daugiau
nėra debesų žemiau 1500 m ir nėra kamuolinių lietaus debesų

METAR: OIBS 210700Z 09012KT CAVOK 31/20 Q1013

Laikas: 11:44 (08:14 UTC)


TAF: trūkstamas

Orai ataskaitas ir orų prognozės (METAR, TAF).

turimą stotys yra geltonos ir raudonos taškus žemėlapyje.

Perkelti pele per norėdami pamatyti stoties vardą.

Tada spustelėkite, norėdami matyti oro stebėjimo ir prognozės.

Norėdami pakeisti žemėlapį: spustelėkite ant žalios mygtukų su juodo kryžiaus žemyn,; žalią mygtuką su brūkšneliu, jei norite nutolinti; arba žalių rodyklių gretimoms žemėlapius.


METAR-TAF: